createdAt,value
2019-04-28T00:01:13.173Z,91.90
2019-04-28T00:03:41.990Z,91.90
2019-04-28T00:06:13.877Z,91.80
2019-04-28T00:08:42.877Z,91.70
2019-04-28T00:11:11.701Z,92.00
2019-04-28T00:13:44.748Z,92.10
2019-04-28T00:16:12.489Z,91.90
2019-04-28T00:18:41.585Z,92.20
2019-04-28T00:21:20.871Z,92.20
2019-04-28T00:27:06.849Z,92.20
2019-04-28T00:29:40.832Z,92.50
2019-04-28T00:32:04.169Z,91.90
2019-04-28T00:34:31.929Z,91.80
2019-04-28T00:37:01.374Z,92.60
2019-04-28T00:39:30.904Z,93.40
2019-04-28T00:41:58.580Z,92.50
2019-04-28T00:44:26.626Z,92.20
2019-04-28T00:46:54.373Z,92.20
2019-04-28T00:49:53.570Z,92.30
2019-04-28T00:52:22.201Z,92.50
2019-04-28T00:54:50.085Z,92.10
2019-04-28T00:57:17.818Z,92.50
2019-04-28T00:59:55.063Z,92.50
2019-04-28T01:02:31.177Z,92.60
2019-04-28T01:04:59.030Z,92.80
2019-04-28T01:07:26.769Z,92.80
2019-04-28T01:09:54.533Z,92.60
2019-04-28T01:12:22.280Z,92.30
2019-04-28T01:14:52.241Z,92.50
2019-04-28T01:17:21.066Z,92.60
2019-04-28T01:19:52.909Z,92.70
2019-04-28T01:22:20.646Z,92.90
2019-04-28T01:24:49.697Z,92.40
2019-04-28T01:27:31.301Z,92.80
2019-04-28T01:30:08.021Z,92.60
2019-04-28T01:32:37.370Z,92.10
2019-04-28T01:35:06.066Z,92.60
2019-04-28T01:37:33.803Z,92.60
2019-04-28T01:40:01.577Z,92.10
2019-04-28T01:42:30.508Z,92.30
2019-04-28T01:44:58.274Z,92.40
2019-04-28T01:47:26.022Z,92.40
2019-04-28T01:50:02.810Z,92.40
2019-04-28T01:52:30.552Z,93.10
2019-04-28T01:55:00.294Z,93.20
2019-04-28T01:57:35.385Z,93.40
2019-04-28T02:00:19.018Z,92.60
2019-04-28T02:02:41.162Z,93.40
2019-04-28T02:05:09.934Z,93.60
2019-04-28T02:07:45.570Z,94.10
2019-04-28T02:10:17.670Z,93.60
2019-04-28T02:12:45.408Z,94.10
2019-04-28T02:18:23.926Z,93.60
2019-04-28T02:20:53.350Z,93.50
2019-04-28T02:23:25.749Z,94.00
2019-04-28T02:25:53.529Z,94.00
2019-04-28T02:28:21.272Z,93.40
2019-04-28T02:30:53.382Z,93.00
2019-04-28T02:33:25.321Z,92.70
2019-04-28T02:35:53.093Z,92.60
2019-04-28T02:38:21.228Z,93.50
2019-04-28T02:40:50.350Z,92.80
2019-04-28T02:43:23.209Z,93.50
2019-04-28T02:45:53.416Z,93.60
2019-04-28T02:48:30.806Z,93.90
2019-04-28T02:51:11.058Z,94.10
2019-04-28T02:53:55.659Z,93.70
2019-04-28T03:00:07.214Z,94.50
2019-04-28T03:02:34.942Z,94.70
2019-04-28T03:08:12.386Z,95.30
2019-04-28T03:13:52.337Z,95.20
2019-04-28T03:16:20.496Z,95.20
2019-04-28T03:19:21.176Z,95.60
2019-04-28T03:21:50.854Z,95.70
2019-04-28T03:24:17.940Z,95.90
2019-04-28T03:26:47.347Z,95.90
2019-04-28T03:29:30.503Z,95.10
2019-04-28T03:32:18.141Z,94.80
2019-04-28T03:34:43.918Z,94.80
2019-04-28T03:37:12.178Z,94.50
2019-04-28T03:39:40.553Z,94.90
2019-04-28T03:42:11.459Z,94.20
2019-04-28T03:44:37.855Z,93.50
2019-04-28T03:47:05.642Z,93.80
2019-04-28T03:49:43.456Z,93.00
2019-04-28T03:52:11.257Z,93.90
2019-04-28T03:55:34.409Z,93.20
2019-04-28T03:58:01.040Z,93.40
2019-04-28T04:00:31.282Z,93.10
2019-04-28T04:03:07.058Z,93.00
2019-04-28T04:11:47.287Z,92.50
2019-04-28T04:14:51.495Z,92.20
2019-04-28T04:17:33.625Z,92.40
2019-04-28T04:20:11.075Z,92.40
2019-04-28T04:22:41.873Z,92.90
2019-04-28T04:25:12.468Z,92.80
2019-04-28T04:27:40.668Z,93.10
2019-04-28T04:30:10.693Z,92.80
2019-04-28T04:32:40.899Z,92.80
2019-04-28T04:35:11.419Z,93.80
2019-04-28T04:37:40.557Z,92.90
2019-04-28T04:40:13.452Z,92.90
2019-04-28T04:45:52.118Z,93.70
2019-04-28T04:48:21.536Z,93.00
2019-04-28T04:50:53.254Z,92.80
2019-04-28T04:56:31.429Z,92.80
2019-04-28T04:59:00.383Z,92.80
2019-04-28T05:04:24.881Z,93.00
2019-04-28T05:06:54.777Z,92.70
2019-04-28T05:19:04.611Z,93.20
2019-04-28T05:21:33.489Z,93.10
2019-04-28T05:24:21.294Z,92.80
2019-04-28T05:29:56.835Z,93.40
2019-04-28T05:32:22.597Z,93.10
2019-04-28T05:34:52.746Z,93.60
2019-04-28T05:37:21.186Z,93.80
2019-04-28T05:39:50.011Z,93.80
2019-04-28T05:42:19.915Z,93.60
2019-04-28T05:45:22.035Z,93.60
2019-04-28T05:48:11.288Z,93.60
2019-04-28T05:50:42.977Z,93.60
2019-04-28T05:53:12.377Z,93.90
2019-04-28T05:55:44.742Z,93.90
2019-04-28T05:59:04.966Z,93.80
2019-04-28T06:04:36.282Z,93.10
2019-04-28T06:07:05.661Z,93.40
2019-04-28T06:09:39.730Z,93.50
2019-04-28T06:12:10.284Z,93.70
2019-04-28T06:14:40.171Z,94.30
2019-04-28T06:17:07.481Z,93.50
2019-04-28T06:19:35.248Z,94.00
2019-04-28T06:22:02.965Z,94.20
2019-04-28T06:24:30.729Z,93.70
2019-04-28T06:26:58.478Z,93.60
2019-04-28T06:29:26.257Z,93.40
2019-04-28T06:31:54.099Z,94.20
2019-04-28T06:34:21.854Z,93.90
2019-04-28T06:36:49.578Z,94.20
2019-04-28T06:39:17.353Z,93.90
2019-04-28T06:41:45.149Z,93.20
2019-04-28T06:44:12.910Z,93.50
2019-04-28T06:46:40.652Z,93.30
2019-04-28T06:49:08.426Z,94.30
2019-04-28T06:51:36.165Z,94.20
2019-04-28T06:54:03.935Z,93.50
2019-04-28T06:56:31.708Z,93.40
2019-04-28T06:58:59.602Z,93.80
2019-04-28T07:01:27.333Z,94.70
2019-04-28T07:03:55.125Z,94.10
2019-04-28T07:06:22.866Z,93.50
2019-04-28T07:08:50.655Z,94.10
2019-04-28T07:11:18.384Z,93.60
2019-04-28T07:13:46.156Z,93.40
2019-04-28T07:16:13.890Z,93.50
2019-04-28T07:18:41.734Z,93.80
2019-04-28T07:21:11.131Z,93.60
2019-04-28T07:23:40.238Z,93.80
2019-04-28T07:26:08.028Z,93.00
2019-04-28T07:28:35.748Z,92.80
2019-04-28T07:31:03.524Z,92.20
2019-04-28T07:33:36.112Z,92.90
2019-04-28T07:36:00.689Z,92.70
2019-04-28T07:38:28.437Z,93.00
2019-04-28T07:40:56.244Z,93.00
2019-04-28T07:43:23.985Z,92.90
2019-04-28T07:45:51.960Z,92.90
2019-04-28T07:48:19.682Z,93.20
2019-04-28T07:50:47.489Z,93.10
2019-04-28T07:53:16.874Z,93.40
2019-04-28T07:55:44.649Z,93.60
2019-04-28T07:58:12.414Z,94.00
2019-04-28T08:00:40.156Z,93.70
2019-04-28T08:03:08.037Z,93.80
2019-04-28T08:09:10.477Z,93.50
2019-04-28T08:11:38.230Z,93.40
2019-04-28T08:14:05.961Z,92.70
2019-04-28T08:16:33.729Z,92.50
2019-04-28T08:19:01.473Z,91.90
2019-04-28T08:21:29.259Z,92.30
2019-04-28T08:24:03.296Z,91.90
2019-04-28T08:26:31.089Z,91.50
2019-04-28T08:32:37.938Z,91.60
2019-04-28T08:38:11.739Z,92.90
2019-04-28T08:41:05.495Z,93.00
2019-04-28T08:43:33.249Z,92.30
2019-04-28T08:46:05.813Z,92.10
2019-04-28T08:48:33.618Z,91.50
2019-04-28T08:54:01.409Z,91.80
2019-04-28T08:56:29.194Z,92.00
2019-04-28T08:58:56.932Z,91.60
2019-04-28T09:01:24.705Z,90.60
2019-04-28T09:03:52.438Z,90.10
2019-04-28T09:06:20.358Z,91.10
2019-04-28T09:08:48.034Z,88.30
2019-04-28T09:11:51.189Z,89.20
2019-04-28T09:14:20.194Z,88.30
2019-04-28T09:16:48.497Z,89.40
2019-04-28T09:19:23.619Z,88.40
2019-04-28T09:21:54.820Z,88.00
2019-04-28T09:24:22.564Z,88.30
2019-04-28T09:26:50.338Z,87.10
2019-04-28T09:29:18.090Z,86.70
2019-04-28T09:31:45.866Z,88.70
2019-04-28T09:34:13.620Z,86.80
2019-04-28T09:46:16.270Z,87.40
2019-04-28T09:49:31.161Z,86.60
2019-04-28T09:51:58.942Z,84.00
2019-04-28T10:10:28.395Z,81.80
2019-04-28T10:22:15.474Z,79.90
2019-04-28T10:24:43.242Z,76.10
2019-04-28T10:27:11.590Z,74.70
2019-04-28T10:29:39.335Z,74.00
2019-04-28T10:32:07.109Z,71.80
2019-04-28T10:34:37.014Z,70.40
2019-04-28T10:37:04.782Z,73.00
2019-04-28T10:43:00.412Z,68.30
2019-04-28T10:45:29.812Z,72.00
2019-04-28T10:48:00.463Z,73.10
2019-04-28T10:50:28.226Z,69.70
2019-04-28T10:52:56.101Z,71.40
2019-04-28T10:55:53.220Z,68.90
2019-04-28T10:58:26.243Z,65.70
2019-04-28T11:00:53.981Z,67.10
2019-04-28T11:03:21.774Z,62.20
2019-04-28T11:05:49.538Z,60.70
2019-04-28T11:08:24.993Z,65.40
2019-04-28T11:14:14.716Z,64.30
2019-04-28T11:16:42.639Z,62.20
2019-04-28T11:19:26.241Z,64.60
2019-04-28T11:22:33.177Z,63.70
2019-04-28T11:25:06.293Z,64.50
2019-04-28T11:27:34.034Z,62.10
2019-04-28T11:30:01.830Z,60.50
2019-04-28T11:32:29.594Z,56.00
2019-04-28T12:00:17.311Z,63.70
2019-04-28T12:02:54.743Z,64.60
2019-04-28T12:05:34.769Z,65.50
2019-04-28T12:14:16.509Z,61.70
2019-04-28T12:16:58.551Z,59.70
2019-04-28T12:19:28.879Z,59.00
2019-04-28T12:25:23.163Z,51.10
2019-04-28T12:27:50.903Z,46.20
2019-04-28T12:30:18.684Z,50.70
2019-04-28T12:32:47.374Z,46.70
2019-04-28T13:07:29.739Z,42.90
2019-04-28T13:09:57.485Z,44.00
2019-04-28T14:18:32.956Z,55.00
2019-04-28T14:25:23.098Z,35.50
2019-04-28T14:27:51.597Z,29.00
2019-04-28T14:34:49.989Z,36.20
2019-04-28T14:37:17.733Z,36.80
2019-04-28T14:47:37.179Z,42.80
2019-04-28T14:50:06.830Z,45.30
2019-04-28T14:52:35.396Z,46.80
2019-04-28T14:55:06.003Z,51.90
2019-04-28T15:04:25.987Z,53.30
2019-04-28T15:06:59.435Z,59.10
2019-04-28T15:09:27.831Z,61.60
2019-04-28T15:11:57.905Z,64.60
2019-04-28T15:14:26.866Z,64.20
2019-04-28T15:16:57.510Z,64.70
2019-04-28T15:19:26.105Z,64.20
2019-04-28T15:21:54.768Z,64.30
2019-04-28T15:24:23.295Z,64.40
2019-04-28T15:26:51.716Z,65.50
2019-04-28T15:29:20.183Z,67.10
2019-04-28T15:31:49.063Z,67.40
2019-04-28T15:34:17.524Z,68.40
2019-04-28T15:36:45.949Z,69.30
2019-04-28T15:39:15.485Z,70.00
2019-04-28T15:41:45.976Z,68.20
2019-04-28T15:44:14.461Z,71.20
2019-04-28T15:46:43.852Z,69.60
2019-04-28T15:49:12.318Z,67.10
2019-04-28T15:51:40.750Z,68.20
2019-04-28T15:54:09.181Z,67.60
2019-04-28T15:56:39.300Z,67.80
2019-04-28T15:59:07.745Z,68.50
2019-04-28T16:01:36.207Z,68.10
2019-04-28T16:04:04.709Z,69.10
2019-04-28T16:06:33.166Z,68.20
2019-04-28T16:09:01.615Z,68.30
2019-04-28T16:11:30.074Z,66.80
2019-04-28T16:13:58.519Z,65.90
2019-04-28T16:16:27.049Z,64.90
2019-04-28T16:18:55.515Z,64.70
2019-04-28T16:21:23.993Z,65.80
2019-04-28T16:23:52.419Z,65.00
2019-04-28T16:26:22.947Z,66.10
2019-04-28T16:28:51.058Z,66.30
2019-04-28T16:31:19.525Z,66.90
2019-04-28T16:33:47.951Z,65.40
2019-04-28T16:36:16.428Z,65.80
2019-04-28T16:38:44.846Z,66.60
2019-04-28T16:41:22.396Z,68.60
2019-04-28T16:43:50.837Z,66.30
2019-04-28T16:46:19.327Z,64.30
2019-04-28T16:48:47.726Z,67.00
2019-04-28T16:51:16.177Z,67.90
2019-04-28T16:53:44.612Z,69.00
2019-04-28T16:56:30.975Z,70.90
2019-04-28T16:59:01.046Z,70.80
2019-04-28T17:05:40.262Z,71.30
2019-04-28T17:08:08.733Z,70.90
2019-04-28T17:10:37.208Z,71.50
2019-04-28T17:13:09.365Z,72.40
2019-04-28T17:15:37.786Z,72.80
2019-04-28T17:18:06.235Z,73.40
2019-04-28T17:20:55.051Z,72.80
2019-04-28T17:23:23.655Z,73.50
2019-04-28T17:25:52.155Z,72.60
2019-04-28T17:28:21.562Z,72.80
2019-04-28T17:30:49.962Z,74.50
2019-04-28T17:33:18.488Z,74.50
2019-04-28T17:35:47.187Z,75.00
2019-04-28T17:38:15.726Z,76.50
2019-04-28T17:40:44.245Z,76.30
2019-04-28T17:43:12.765Z,76.30
2019-04-28T17:45:41.191Z,77.20
2019-04-28T17:48:11.328Z,76.50
2019-04-28T17:50:40.098Z,78.30
2019-04-28T17:53:08.550Z,79.90
2019-04-28T17:55:38.540Z,80.90
2019-04-28T17:58:07.007Z,80.00
2019-04-28T18:00:43.226Z,80.20
2019-04-28T18:03:13.358Z,79.00
2019-04-28T18:05:43.414Z,78.40
2019-04-28T18:08:20.797Z,79.10
2019-04-28T18:10:42.034Z,79.20
2019-04-28T18:13:10.487Z,79.40
2019-04-28T18:15:40.640Z,79.10
2019-04-28T18:18:25.754Z,79.10
2019-04-28T18:20:54.226Z,78.30
2019-04-28T18:23:22.684Z,80.30
2019-04-28T18:25:51.123Z,81.40
2019-04-28T18:28:19.634Z,81.50
2019-04-28T18:30:49.722Z,80.30
2019-04-28T18:33:29.026Z,81.20
2019-04-28T18:35:59.084Z,83.90
2019-04-28T18:38:35.570Z,83.30
2019-04-28T18:41:21.024Z,85.40
2019-04-28T18:44:03.349Z,85.80
2019-04-28T18:46:31.769Z,86.00
2019-04-28T18:49:00.220Z,85.50
2019-04-28T18:51:28.634Z,85.60
2019-04-28T18:53:57.090Z,84.90
2019-04-28T18:56:25.517Z,85.80
2019-04-28T18:58:53.974Z,86.10
2019-04-28T19:01:24.059Z,87.20
2019-04-28T19:03:52.574Z,88.10
2019-04-28T19:06:20.998Z,87.10
2019-04-28T19:08:51.194Z,87.00
2019-04-28T19:11:21.298Z,85.70
2019-04-28T19:13:54.405Z,88.30
2019-04-28T19:16:40.821Z,90.00
2019-04-28T19:19:10.902Z,90.50
2019-04-28T19:21:39.510Z,90.30
2019-04-28T19:24:07.994Z,90.10
2019-04-28T19:26:36.441Z,89.90
2019-04-28T19:29:04.896Z,90.20
2019-04-28T19:31:33.321Z,89.20
2019-04-28T19:34:01.813Z,87.50
2019-04-28T19:36:30.241Z,84.20
2019-04-28T19:39:03.280Z,84.60
2019-04-28T19:41:28.893Z,86.20
2019-04-28T19:43:57.349Z,85.10
2019-04-28T19:46:25.785Z,85.70
2019-04-28T19:48:54.271Z,88.00
2019-04-28T19:51:31.622Z,88.90
2019-04-28T19:53:52.751Z,89.80
2019-04-28T19:56:31.722Z,90.00
2019-04-28T19:59:01.838Z,88.20
2019-04-28T20:01:32.063Z,87.50
2019-04-28T20:04:00.528Z,88.00
2019-04-28T20:06:28.958Z,88.80
2019-04-28T20:08:57.407Z,89.30
2019-04-28T20:11:27.062Z,88.00
2019-04-28T20:13:55.486Z,90.00
2019-04-28T20:16:23.948Z,90.90
2019-04-28T20:18:52.389Z,90.80
2019-04-28T20:21:20.829Z,90.30
2019-04-28T20:23:49.259Z,90.00
2019-04-28T20:26:17.709Z,90.00
2019-04-28T20:28:46.160Z,90.00
2019-04-28T20:31:14.673Z,90.00
2019-04-28T20:33:43.133Z,89.40
2019-04-28T20:36:16.014Z,89.30
2019-04-28T20:38:46.112Z,90.50
2019-04-28T20:41:16.267Z,90.80
2019-04-28T20:43:44.972Z,90.50
2019-04-28T20:46:13.416Z,90.50
2019-04-28T20:48:41.845Z,90.50
2019-04-28T20:51:10.295Z,90.20
2019-04-28T20:53:38.738Z,90.30
2019-04-28T20:56:07.288Z,90.30
2019-04-28T20:58:43.430Z,90.20
2019-04-28T21:01:14.322Z,90.20
2019-04-28T21:03:46.342Z,90.20
2019-04-28T21:06:14.951Z,89.70
2019-04-28T21:08:43.382Z,89.70
2019-04-28T21:11:11.870Z,90.60
2019-04-28T21:13:40.581Z,91.00
2019-04-28T21:16:09.088Z,91.70
2019-04-28T21:18:37.531Z,92.30
2019-04-28T21:21:05.985Z,91.90
2019-04-28T21:23:35.393Z,91.50
2019-04-28T21:26:08.228Z,91.40
2019-04-28T21:28:39.627Z,90.90
2019-04-28T21:31:10.597Z,91.30
2019-04-28T21:33:40.330Z,91.30
2019-04-28T21:36:13.084Z,91.80
2019-04-28T21:38:45.317Z,92.00
2019-04-28T21:41:15.560Z,92.50
2019-04-28T21:43:49.772Z,92.80
2019-04-28T21:46:26.856Z,92.70
2019-04-28T21:48:56.925Z,92.70
2019-04-28T21:51:27.430Z,92.90
2019-04-28T21:53:58.646Z,93.00
2019-04-28T21:56:30.242Z,92.30
2019-04-28T21:58:58.635Z,92.40
2019-04-28T22:01:29.793Z,92.80
2019-04-28T22:04:00.651Z,92.90
2019-04-28T22:06:31.190Z,92.80
2019-04-28T22:08:59.886Z,93.00
2019-04-28T22:11:32.618Z,93.10
2019-04-28T22:14:01.852Z,92.90
2019-04-28T22:16:31.776Z,92.70
2019-04-28T22:19:00.218Z,91.90
2019-04-28T22:21:31.968Z,91.80
2019-04-28T22:24:12.329Z,92.30
2019-04-28T22:26:50.415Z,92.50
2019-04-28T22:29:18.815Z,93.10
2019-04-28T22:31:50.026Z,92.70
2019-04-28T22:34:20.010Z,92.80
2019-04-28T22:36:50.671Z,93.00
2019-04-28T22:39:19.101Z,92.90
2019-04-28T22:41:50.004Z,92.20
2019-04-28T22:44:19.844Z,92.70
2019-04-28T22:46:51.983Z,92.00
2019-04-28T22:49:20.408Z,92.10
2019-04-28T22:51:51.607Z,92.50
2019-04-28T22:54:30.845Z,92.90
2019-04-28T22:57:00.906Z,93.60
2019-04-28T22:59:34.058Z,94.10
2019-04-28T23:02:16.491Z,94.30
2019-04-28T23:04:46.573Z,94.20
2019-04-28T23:07:14.995Z,94.30
2019-04-28T23:09:43.441Z,93.30
2019-04-28T23:12:11.943Z,93.60
2019-04-28T23:14:40.421Z,93.80
2019-04-28T23:17:10.516Z,94.00
2019-04-28T23:19:43.438Z,94.00
2019-04-28T23:22:22.411Z,93.90
2019-04-28T23:24:50.845Z,94.20
2019-04-28T23:27:19.273Z,93.90
2019-04-28T23:29:47.725Z,93.80
2019-04-28T23:32:16.177Z,93.70
2019-04-28T23:34:44.626Z,93.10
2019-04-28T23:37:13.052Z,93.30
2019-04-28T23:39:41.495Z,93.50
2019-04-28T23:42:17.122Z,93.80
2019-04-28T23:44:45.576Z,93.70
2019-04-28T23:47:13.990Z,94.10
2019-04-28T23:49:42.443Z,94.10
2019-04-28T23:52:12.518Z,94.20
2019-04-28T23:54:42.629Z,94.60
2019-04-28T23:57:11.088Z,95.30
2019-04-28T23:59:39.532Z,95.00
